createdAt,value
2019-04-03T00:02:30.905Z,10.28
2019-04-03T00:05:44.644Z,10.26
2019-04-03T00:08:58.235Z,10.26
2019-04-03T00:12:11.694Z,10.23
2019-04-03T00:15:25.258Z,10.15
2019-04-03T00:18:38.839Z,10.09
2019-04-03T00:21:52.306Z,10.09
2019-04-03T00:25:06.198Z,10.02
2019-04-03T00:28:22.022Z,9.99
2019-04-03T00:31:35.404Z,9.99
2019-04-03T00:34:48.985Z,9.98
2019-04-03T00:38:02.573Z,9.87
2019-04-03T00:41:16.056Z,9.82
2019-04-03T00:44:29.540Z,9.92
2019-04-03T00:47:43.111Z,10.03
2019-04-03T00:50:57.612Z,10.05
2019-04-03T00:54:11.447Z,10.13
2019-04-03T00:57:26.343Z,10.18
2019-04-03T01:00:40.553Z,10.14
2019-04-03T01:03:54.143Z,10.18
2019-04-03T01:07:07.606Z,10.18
2019-04-03T01:10:21.383Z,10.12
2019-04-03T01:13:35.125Z,10.15
2019-04-03T01:16:48.971Z,10.12
2019-04-03T01:20:06.058Z,10.06
2019-04-03T01:23:19.316Z,10.18
2019-04-03T01:26:32.743Z,10.10
2019-04-03T01:29:46.490Z,9.98
2019-04-03T01:33:00.015Z,9.98
2019-04-03T01:36:13.463Z,9.90
2019-04-03T01:39:26.944Z,9.85
2019-04-03T01:42:40.416Z,9.72
2019-04-03T01:45:56.507Z,9.65
2019-04-03T01:49:09.269Z,9.40
2019-04-03T01:52:23.142Z,9.30
2019-04-03T01:55:36.630Z,9.25
2019-04-03T01:58:50.082Z,9.17
2019-04-03T02:02:04.036Z,9.12
2019-04-03T02:05:17.905Z,9.09
2019-04-03T02:08:31.459Z,8.84
2019-04-03T02:11:45.021Z,8.72
2019-04-03T02:14:58.608Z,8.75
2019-04-03T02:18:12.065Z,8.82
2019-04-03T02:21:27.168Z,8.82
2019-04-03T02:24:41.080Z,8.81
2019-04-03T02:27:54.598Z,8.80
2019-04-03T02:31:08.079Z,8.94
2019-04-03T02:34:21.548Z,9.10
2019-04-03T02:37:35.110Z,9.17
2019-04-03T02:40:48.595Z,9.25
2019-04-03T02:44:02.347Z,9.24
2019-04-03T02:47:15.807Z,9.27
2019-04-03T02:50:29.382Z,9.28
2019-04-03T02:53:43.493Z,9.44
2019-04-03T02:56:57.774Z,9.41
2019-04-03T03:00:11.741Z,9.52
2019-04-03T03:03:25.197Z,9.60
2019-04-03T03:06:38.952Z,9.67
2019-04-03T03:09:53.401Z,9.72
2019-04-03T03:13:08.523Z,9.65
2019-04-03T03:16:22.130Z,9.68
2019-04-03T03:19:36.351Z,9.79
2019-04-03T03:22:51.283Z,9.78
2019-04-03T03:26:06.182Z,9.80
2019-04-03T03:29:25.687Z,9.77
2019-04-03T03:32:37.316Z,9.81
2019-04-03T03:35:52.227Z,9.80
2019-04-03T03:39:06.379Z,9.77
2019-04-03T03:42:20.957Z,9.74
2019-04-03T03:45:35.369Z,9.66
2019-04-03T03:48:49.250Z,9.77
2019-04-03T03:52:05.212Z,9.89
2019-04-03T03:55:22.898Z,9.75
2019-04-03T03:58:35.050Z,9.84
2019-04-03T04:01:48.917Z,9.94
2019-04-03T04:05:02.787Z,9.94
2019-04-03T04:08:17.268Z,9.96
2019-04-03T04:11:32.398Z,10.00
2019-04-03T04:14:46.421Z,9.95
2019-04-03T04:18:00.403Z,9.88
2019-04-03T04:21:14.402Z,9.96
2019-04-03T04:24:28.745Z,9.84
2019-04-03T04:27:42.453Z,9.82
2019-04-03T04:30:56.265Z,9.91
2019-04-03T04:34:09.884Z,9.96
2019-04-03T04:37:24.648Z,9.95
2019-04-03T04:40:38.951Z,9.95
2019-04-03T04:43:52.411Z,10.03
2019-04-03T04:47:06.262Z,10.02
2019-04-03T04:50:25.303Z,10.04
2019-04-03T04:53:38.338Z,10.06
2019-04-03T04:56:51.822Z,10.14
2019-04-03T05:00:05.713Z,10.15
2019-04-03T05:03:21.127Z,10.15
2019-04-03T05:06:34.576Z,10.13
2019-04-03T05:09:48.033Z,10.13
2019-04-03T05:13:01.844Z,10.14
2019-04-03T05:16:15.303Z,10.16
2019-04-03T05:19:28.773Z,10.12
2019-04-03T05:22:42.504Z,10.09
2019-04-03T05:25:56.535Z,10.09
2019-04-03T05:29:10.396Z,10.11
2019-04-03T05:32:23.951Z,10.14
2019-04-03T05:35:37.718Z,10.19
2019-04-03T05:38:53.770Z,10.22
2019-04-03T05:42:06.841Z,10.28
2019-04-03T05:45:20.882Z,10.24
2019-04-03T05:48:34.687Z,10.32
2019-04-03T05:51:48.332Z,10.32
2019-04-03T05:55:01.786Z,10.36
2019-04-03T05:58:16.294Z,10.33
2019-04-03T06:01:30.223Z,10.42
2019-04-03T06:04:43.683Z,10.55
2019-04-03T06:07:57.378Z,10.60
2019-04-03T06:11:11.095Z,10.64
2019-04-03T06:14:24.612Z,10.68
2019-04-03T06:17:38.335Z,10.68
2019-04-03T06:20:51.790Z,10.70
2019-04-03T06:24:05.263Z,10.63
2019-04-03T06:27:19.652Z,10.64
2019-04-03T06:30:33.778Z,10.64
2019-04-03T06:33:47.655Z,10.50
2019-04-03T06:37:01.517Z,10.47
2019-04-03T06:40:15.434Z,10.47
2019-04-03T06:43:30.446Z,10.54
2019-04-03T06:46:44.540Z,10.53
2019-04-03T06:49:58.040Z,10.53
2019-04-03T06:53:11.892Z,10.44
2019-04-03T06:56:25.749Z,10.44
2019-04-03T06:59:39.513Z,10.28
2019-04-03T07:02:53.519Z,10.27
2019-04-03T07:06:07.073Z,10.09
2019-04-03T07:09:24.353Z,10.05
2019-04-03T07:12:36.424Z,10.15
2019-04-03T07:15:49.900Z,10.27
2019-04-03T07:19:03.579Z,10.41
2019-04-03T07:22:17.599Z,10.48
2019-04-03T07:25:31.959Z,10.06
2019-04-03T07:28:46.787Z,9.75
2019-04-03T07:32:00.719Z,9.23
2019-04-03T07:35:14.448Z,8.89
2019-04-03T07:38:28.010Z,8.63
2019-04-03T07:41:41.888Z,8.40
2019-04-03T07:44:56.078Z,8.41
2019-04-03T07:48:09.560Z,8.17
2019-04-03T07:51:23.025Z,8.17
2019-04-03T07:54:37.020Z,8.16
2019-04-03T07:57:50.939Z,8.22
2019-04-03T08:01:04.868Z,8.14
2019-04-03T08:04:18.956Z,8.16
2019-04-03T08:07:32.804Z,8.19
2019-04-03T08:10:46.364Z,8.26
2019-04-03T08:14:00.149Z,8.37
2019-04-03T08:17:13.903Z,8.32
2019-04-03T08:20:30.465Z,8.26
2019-04-03T08:23:42.920Z,8.34
2019-04-03T08:26:56.811Z,8.45
2019-04-03T08:30:11.339Z,8.66
2019-04-03T08:33:27.057Z,8.88
2019-04-03T08:36:40.514Z,8.97
2019-04-03T08:39:57.244Z,8.81
2019-04-03T08:43:09.700Z,8.75
2019-04-03T08:46:23.159Z,8.54
2019-04-03T08:49:37.194Z,8.46
2019-04-03T08:52:51.032Z,8.43
2019-04-03T08:56:04.892Z,8.34
2019-04-03T08:59:18.360Z,8.39
2019-04-03T09:02:32.086Z,8.35
2019-04-03T09:05:45.711Z,8.31
2019-04-03T09:08:59.282Z,8.27
2019-04-03T09:12:12.735Z,7.95
2019-04-03T09:15:28.216Z,8.02
2019-04-03T09:18:42.157Z,7.92
2019-04-03T09:21:55.851Z,7.96
2019-04-03T09:25:09.776Z,7.89
2019-04-03T09:28:23.961Z,7.81
2019-04-03T09:31:37.576Z,7.71
2019-04-03T09:34:51.078Z,7.67
2019-04-03T09:38:04.864Z,7.63
2019-04-03T09:41:19.235Z,7.51
2019-04-03T09:44:33.740Z,7.53
2019-04-03T09:47:47.244Z,7.57
2019-04-03T09:51:01.034Z,7.64
2019-04-03T09:54:14.786Z,7.63
2019-04-03T09:57:28.703Z,7.73
2019-04-03T10:00:43.673Z,7.62
2019-04-03T10:03:57.133Z,7.75
2019-04-03T10:07:11.005Z,7.78
2019-04-03T10:10:26.124Z,7.95
2019-04-03T10:13:39.971Z,8.15
2019-04-03T10:16:53.473Z,8.28
2019-04-03T10:20:08.177Z,8.22
2019-04-03T10:23:22.223Z,8.44
2019-04-03T10:26:36.065Z,8.60
2019-04-03T10:29:50.661Z,8.80
2019-04-03T10:33:04.572Z,8.95
2019-04-03T10:36:18.641Z,9.05
2019-04-03T10:39:32.291Z,9.19
2019-04-03T10:42:46.109Z,9.16
2019-04-03T10:46:00.051Z,9.02
2019-04-03T10:49:13.758Z,9.05
2019-04-03T10:52:27.511Z,9.14
2019-04-03T10:55:41.217Z,8.77
2019-04-03T10:58:55.311Z,8.61
2019-04-03T11:02:09.315Z,8.74
2019-04-03T11:05:22.843Z,8.92
2019-04-03T11:08:36.442Z,9.06
2019-04-03T11:11:50.103Z,9.10
2019-04-03T11:15:04.875Z,9.00
2019-04-03T11:18:18.888Z,8.88
2019-04-03T11:21:34.461Z,8.84
2019-04-03T11:24:47.937Z,9.01
2019-04-03T11:28:05.049Z,8.98
2019-04-03T11:31:25.343Z,8.97
2019-04-03T11:34:32.589Z,8.95
2019-04-03T11:37:46.055Z,8.92
2019-04-03T11:41:11.435Z,8.99
2019-04-03T11:44:15.014Z,8.98
2019-04-03T11:47:28.937Z,8.90
2019-04-03T11:50:42.527Z,8.72
2019-04-03T11:53:55.979Z,8.46
2019-04-03T11:57:09.724Z,8.36
2019-04-03T12:00:28.148Z,8.39
2019-04-03T12:03:42.297Z,8.52
2019-04-03T12:06:56.531Z,8.63
2019-04-03T12:10:10.658Z,8.78
2019-04-03T12:13:24.157Z,8.97
2019-04-03T12:16:37.620Z,9.18
2019-04-03T12:19:52.314Z,9.44
2019-04-03T12:23:06.085Z,9.58
2019-04-03T12:26:21.248Z,9.53
2019-04-03T12:29:35.464Z,9.71
2019-04-03T12:32:50.258Z,9.80
2019-04-03T12:36:06.668Z,9.78
2019-04-03T12:39:27.853Z,9.80
2019-04-03T12:42:41.733Z,9.78
2019-04-03T12:45:56.164Z,9.58
2019-04-03T12:49:10.731Z,9.63
2019-04-03T12:52:24.585Z,9.54
2019-04-03T12:55:38.311Z,9.64
2019-04-03T12:58:51.799Z,9.63
2019-04-03T13:02:05.677Z,9.40
2019-04-03T13:05:19.570Z,9.37
2019-04-03T13:08:33.148Z,9.24
2019-04-03T13:11:49.749Z,9.32
2019-04-03T13:15:05.777Z,9.32
2019-04-03T13:18:19.938Z,9.38
2019-04-03T13:21:33.834Z,9.51
2019-04-03T13:24:48.340Z,9.58
2019-04-03T13:28:03.957Z,9.48
2019-04-03T13:31:18.011Z,9.49
2019-04-03T13:34:32.640Z,9.44
2019-04-03T13:37:46.639Z,9.24
2019-04-03T13:41:00.537Z,9.15
2019-04-03T13:44:14.496Z,9.09
2019-04-03T13:47:28.321Z,9.06
2019-04-03T13:50:44.994Z,9.13
2019-04-03T13:53:58.387Z,9.10
2019-04-03T13:57:14.713Z,9.17
2019-04-03T14:00:27.859Z,9.25
2019-04-03T14:03:41.486Z,9.25
2019-04-03T14:06:55.293Z,9.21
2019-04-03T14:10:09.858Z,9.17
2019-04-03T14:13:23.543Z,9.12
2019-04-03T14:16:37.153Z,9.16
2019-04-03T14:19:52.306Z,9.14
2019-04-03T14:23:06.637Z,9.13
2019-04-03T14:26:20.383Z,9.11
2019-04-03T14:29:34.162Z,9.11
2019-04-03T14:32:47.648Z,9.04
2019-04-03T14:36:01.548Z,9.04
2019-04-03T14:39:15.093Z,9.04
2019-04-03T14:42:28.826Z,8.91
2019-04-03T14:45:44.974Z,8.85
2019-04-03T14:49:01.277Z,8.86
2019-04-03T14:52:15.021Z,8.83
2019-04-03T14:55:30.259Z,8.85
2019-04-03T14:58:44.313Z,8.87
2019-04-03T15:01:58.159Z,8.88
2019-04-03T15:05:12.038Z,8.78
2019-04-03T15:08:25.980Z,8.74
2019-04-03T15:11:39.553Z,8.70
2019-04-03T15:14:54.528Z,8.60
2019-04-03T15:18:10.043Z,8.48
2019-04-03T15:21:24.831Z,8.54
2019-04-03T15:24:42.660Z,8.53
2019-04-03T15:27:54.878Z,8.55
2019-04-03T15:31:09.180Z,8.57
2019-04-03T15:34:23.172Z,8.60
2019-04-03T15:37:39.907Z,8.58
2019-04-03T15:40:52.405Z,8.60
2019-04-03T15:44:06.025Z,8.54
2019-04-03T15:47:33.223Z,8.43
2019-04-03T15:50:37.673Z,8.39
2019-04-03T15:53:50.854Z,8.33
2019-04-03T15:57:04.368Z,8.31
2019-04-03T16:00:18.456Z,8.31
2019-04-03T16:03:31.989Z,8.26
2019-04-03T16:06:45.508Z,8.10
2019-04-03T16:09:59.088Z,7.91
2019-04-03T16:13:15.038Z,7.90
2019-04-03T16:16:29.322Z,7.85
2019-04-03T16:19:44.520Z,7.71
2019-04-03T16:22:58.422Z,7.64
2019-04-03T16:26:12.599Z,7.66
2019-04-03T16:29:26.105Z,7.67
2019-04-03T16:32:39.985Z,7.61
2019-04-03T16:35:53.878Z,7.45
2019-04-03T16:39:08.250Z,7.35
2019-04-03T16:42:22.723Z,7.20
2019-04-03T16:45:37.630Z,7.14
2019-04-03T16:48:52.169Z,7.08
2019-04-03T16:52:06.234Z,7.13
2019-04-03T16:55:19.908Z,7.14
2019-04-03T16:58:33.943Z,7.16
2019-04-03T17:01:47.435Z,7.09
2019-04-03T17:05:01.037Z,7.15
2019-04-03T17:08:14.582Z,7.17
2019-04-03T17:11:30.133Z,7.18
2019-04-03T17:14:45.678Z,7.15
2019-04-03T17:18:02.073Z,7.12
2019-04-03T17:21:15.846Z,7.02
2019-04-03T17:24:41.033Z,6.99
2019-04-03T17:27:55.222Z,7.03
2019-04-03T17:31:00.922Z,6.97
2019-04-03T17:34:14.710Z,6.96
2019-04-03T17:37:30.272Z,7.02
2019-04-03T17:40:43.621Z,7.04
2019-04-03T17:43:57.234Z,7.00
2019-04-03T17:47:10.701Z,6.94
2019-04-03T17:50:24.175Z,6.89
2019-04-03T17:53:37.760Z,6.86
2019-04-03T17:56:51.249Z,6.77
2019-04-03T18:00:08.237Z,6.80
2019-04-03T18:03:21.694Z,6.85
2019-04-03T18:06:35.278Z,6.86
2019-04-03T18:09:48.740Z,6.90
2019-04-03T18:13:02.560Z,6.89
2019-04-03T18:16:16.135Z,6.86
2019-04-03T18:19:37.495Z,6.82
2019-04-03T18:22:45.118Z,6.84
2019-04-03T18:25:59.708Z,6.83
2019-04-03T18:29:13.732Z,6.86
2019-04-03T18:32:29.757Z,6.86
2019-04-03T18:35:42.839Z,6.81
2019-04-03T18:38:56.330Z,6.74
2019-04-03T18:42:09.819Z,6.63
2019-04-03T18:45:25.521Z,6.64
2019-04-03T18:48:38.685Z,6.67
2019-04-03T18:51:52.339Z,6.65
2019-04-03T18:55:06.314Z,6.63
2019-04-03T18:58:20.174Z,6.62
2019-04-03T19:01:33.763Z,6.61
2019-04-03T19:04:47.350Z,6.59
2019-04-03T19:08:12.507Z,6.63
2019-04-03T19:11:16.739Z,6.59
2019-04-03T19:14:31.997Z,6.50
2019-04-03T19:17:45.627Z,6.44
2019-04-03T19:20:59.720Z,6.41
2019-04-03T19:24:13.455Z,6.45
2019-04-03T19:27:26.946Z,6.46
2019-04-03T19:30:40.774Z,6.51
2019-04-03T19:33:54.298Z,6.49
2019-04-03T19:37:08.191Z,6.51
2019-04-03T19:40:21.659Z,6.50
2019-04-03T19:43:35.265Z,6.41
2019-04-03T19:46:48.748Z,6.42
2019-04-03T19:50:03.188Z,6.47
2019-04-03T19:53:16.673Z,6.43
2019-04-03T19:56:30.264Z,6.43
2019-04-03T19:59:43.771Z,6.42
2019-04-03T20:02:57.221Z,6.43
2019-04-03T20:06:11.065Z,6.42
2019-04-03T20:09:24.577Z,6.37
2019-04-03T20:12:38.421Z,6.35
2019-04-03T20:15:54.537Z,6.38
2019-04-03T20:19:08.568Z,6.35
2019-04-03T20:22:22.040Z,6.26
2019-04-03T20:25:35.649Z,6.29
2019-04-03T20:28:49.118Z,6.28
2019-04-03T20:32:02.609Z,6.28
2019-04-03T20:35:18.211Z,6.25
2019-04-03T20:38:31.600Z,6.30
2019-04-03T20:41:45.222Z,6.27
2019-04-03T20:44:58.670Z,6.26
2019-04-03T20:48:12.251Z,6.22
2019-04-03T20:51:25.824Z,6.23
2019-04-03T20:54:39.586Z,6.27
2019-04-03T20:57:55.843Z,6.30
2019-04-03T21:01:08.776Z,6.31
2019-04-03T21:04:22.281Z,6.32
2019-04-03T21:07:35.859Z,6.28
2019-04-03T21:10:49.441Z,6.26
2019-04-03T21:14:05.615Z,6.25
2019-04-03T21:17:19.411Z,6.22
2019-04-03T21:20:33.303Z,6.15
2019-04-03T21:23:47.096Z,6.19
2019-04-03T21:27:00.587Z,6.15
2019-04-03T21:30:14.389Z,6.17
2019-04-03T21:33:30.499Z,6.21
2019-04-03T21:36:43.239Z,6.23
2019-04-03T21:39:56.742Z,6.23
2019-04-03T21:43:10.233Z,6.24
2019-04-03T21:46:23.693Z,6.23
2019-04-03T21:49:37.183Z,6.25
2019-04-03T21:52:53.577Z,6.21
2019-04-03T21:56:06.153Z,6.27
2019-04-03T21:59:19.944Z,6.32
2019-04-03T22:02:33.779Z,6.32
2019-04-03T22:05:47.545Z,6.27
2019-04-03T22:09:01.045Z,6.25
2019-04-03T22:12:14.936Z,6.25
2019-04-03T22:15:28.423Z,6.22
2019-04-03T22:18:41.999Z,6.21
2019-04-03T22:21:55.754Z,6.20
2019-04-03T22:25:09.556Z,6.18
2019-04-03T22:28:23.011Z,6.20
2019-04-03T22:31:36.759Z,6.16
2019-04-03T22:34:50.347Z,6.19
2019-04-03T22:38:05.368Z,6.10
2019-04-03T22:41:19.194Z,6.03
2019-04-03T22:44:32.670Z,5.94
2019-04-03T22:47:47.657Z,5.95
2019-04-03T22:51:01.336Z,5.99
2019-04-03T22:54:15.050Z,6.03
2019-04-03T22:57:28.522Z,6.06
2019-04-03T23:00:42.126Z,6.07
2019-04-03T23:03:55.709Z,6.08
2019-04-03T23:07:09.215Z,6.09
2019-04-03T23:10:22.793Z,6.09
2019-04-03T23:13:36.305Z,6.10
2019-04-03T23:16:49.755Z,6.06
2019-04-03T23:20:04.036Z,5.97
2019-04-03T23:23:17.558Z,5.92
2019-04-03T23:26:32.251Z,5.88
2019-04-03T23:29:46.997Z,5.87
2019-04-03T23:33:00.539Z,5.75
2019-04-03T23:36:14.003Z,5.70
2019-04-03T23:39:28.029Z,5.64
2019-04-03T23:42:41.963Z,5.72
2019-04-03T23:45:55.470Z,5.75
2019-04-03T23:49:08.937Z,5.79
2019-04-03T23:52:22.790Z,5.78
2019-04-03T23:55:55.938Z,5.80
2019-04-03T23:59:12.664Z,5.82
